createdAt,value
2022-08-29T00:01:02.139Z,76.89
2022-08-29T00:03:32.167Z,77.34
2022-08-29T00:06:01.610Z,77.44
2022-08-29T00:08:31.003Z,77.37
2022-08-29T00:11:00.590Z,77.57
2022-08-29T00:13:31.456Z,77.16
2022-08-29T00:16:00.870Z,77.32
2022-08-29T00:18:30.555Z,77.41
2022-08-29T00:20:59.922Z,77.84
2022-08-29T00:23:29.305Z,77.83
2022-08-29T00:25:58.878Z,78.20
2022-08-29T00:28:28.228Z,78.39
2022-08-29T00:30:58.913Z,78.86
2022-08-29T00:33:28.725Z,79.21
2022-08-29T00:35:58.202Z,79.29
2022-08-29T00:38:28.518Z,79.35
2022-08-29T00:40:59.686Z,79.86
2022-08-29T00:43:32.549Z,80.16
2022-08-29T00:46:11.877Z,80.24
2022-08-29T00:48:42.564Z,80.32
2022-08-29T00:51:17.996Z,80.23
2022-08-29T00:53:51.300Z,80.50
2022-08-29T00:56:21.647Z,80.71
2022-08-29T00:58:56.231Z,80.53
2022-08-29T01:01:27.731Z,81.18
2022-08-29T01:03:57.284Z,81.40
2022-08-29T01:06:28.592Z,81.63
2022-08-29T01:08:58.456Z,81.69
2022-08-29T01:11:48.479Z,81.68
2022-08-29T01:14:18.948Z,82.22
2022-08-29T01:16:52.441Z,82.53
2022-08-29T01:19:33.488Z,82.57
2022-08-29T01:22:14.760Z,82.59
2022-08-29T01:24:50.866Z,82.66
2022-08-29T01:27:22.782Z,82.50
2022-08-29T01:29:52.102Z,82.58
2022-08-29T01:32:21.654Z,82.53
2022-08-29T01:34:50.895Z,82.55
2022-08-29T01:37:21.263Z,82.55
2022-08-29T01:39:52.316Z,82.70
2022-08-29T01:42:23.507Z,82.64
2022-08-29T01:44:55.377Z,82.67
2022-08-29T01:47:27.338Z,82.86
2022-08-29T01:49:57.384Z,83.07
2022-08-29T01:52:26.728Z,83.22
2022-08-29T01:54:57.419Z,83.10
2022-08-29T01:57:27.045Z,82.83
2022-08-29T01:59:57.220Z,82.92
2022-08-29T02:02:29.451Z,82.97
2022-08-29T02:04:59.050Z,82.82
2022-08-29T02:07:29.522Z,82.74
2022-08-29T02:10:00.435Z,82.79
2022-08-29T02:12:31.715Z,82.86
2022-08-29T02:15:01.504Z,82.84
2022-08-29T02:17:31.118Z,82.77
2022-08-29T02:20:00.390Z,83.07
2022-08-29T02:22:29.684Z,82.95
2022-08-29T02:25:23.635Z,83.20
2022-08-29T02:27:53.180Z,83.07
2022-08-29T02:30:23.391Z,82.99
2022-08-29T02:32:52.692Z,82.94
2022-08-29T02:35:22.653Z,82.93
2022-08-29T02:37:54.017Z,83.02
2022-08-29T02:40:31.913Z,83.14
2022-08-29T02:43:02.586Z,82.94
2022-08-29T02:45:32.192Z,83.06
2022-08-29T02:48:01.736Z,83.25
2022-08-29T02:50:31.588Z,83.20
2022-08-29T02:53:00.937Z,83.07
2022-08-29T02:55:31.679Z,83.12
2022-08-29T02:58:01.407Z,82.72
2022-08-29T03:00:31.114Z,82.53
2022-08-29T03:03:00.521Z,82.39
2022-08-29T03:05:34.916Z,82.24
2022-08-29T03:08:06.891Z,82.14
2022-08-29T03:10:38.858Z,82.06
2022-08-29T03:13:08.251Z,81.97
2022-08-29T03:15:37.789Z,81.81
2022-08-29T03:18:08.120Z,81.79
2022-08-29T03:20:39.144Z,81.60
2022-08-29T03:23:09.002Z,81.65
2022-08-29T03:25:39.940Z,81.50
2022-08-29T03:28:09.450Z,81.46
2022-08-29T03:30:38.792Z,81.32
2022-08-29T03:33:11.602Z,81.06
2022-08-29T03:35:41.617Z,81.31
2022-08-29T03:38:13.073Z,81.04
2022-08-29T03:40:44.972Z,81.14
2022-08-29T03:43:14.254Z,81.17
2022-08-29T03:45:44.002Z,81.14
2022-08-29T03:48:13.759Z,81.05
2022-08-29T03:50:43.706Z,81.11
2022-08-29T03:53:13.334Z,81.00
2022-08-29T03:55:44.072Z,81.07
2022-08-29T03:58:13.926Z,81.24
2022-08-29T04:00:44.090Z,81.39
2022-08-29T04:03:13.249Z,81.51
2022-08-29T04:05:43.444Z,81.29
2022-08-29T04:08:12.526Z,81.20
2022-08-29T04:10:42.150Z,81.32
2022-08-29T04:13:13.711Z,81.37
2022-08-29T04:15:44.128Z,81.15
2022-08-29T04:18:15.479Z,81.29
2022-08-29T04:20:46.292Z,81.36
2022-08-29T04:23:16.862Z,81.42
2022-08-29T04:25:46.314Z,81.52
2022-08-29T04:28:17.830Z,81.49
2022-08-29T04:30:51.715Z,81.83
2022-08-29T04:33:23.798Z,82.11
2022-08-29T04:35:54.551Z,82.90
2022-08-29T04:38:23.851Z,82.64
2022-08-29T04:40:53.154Z,82.67
2022-08-29T04:43:24.169Z,82.30
2022-08-29T04:46:00.722Z,82.66
2022-08-29T04:48:31.078Z,82.79
2022-08-29T04:51:02.697Z,82.33
2022-08-29T04:53:32.354Z,82.27
2022-08-29T04:56:03.750Z,82.60
2022-08-29T04:58:34.988Z,84.04
2022-08-29T05:01:06.694Z,84.19
2022-08-29T05:03:36.292Z,84.62
2022-08-29T05:06:08.455Z,85.35
2022-08-29T05:08:40.741Z,85.81
2022-08-29T05:11:14.610Z,86.07
2022-08-29T05:13:54.162Z,84.92
2022-08-29T05:16:23.585Z,84.83
2022-08-29T05:18:52.967Z,85.43
2022-08-29T05:21:27.693Z,85.83
2022-08-29T05:23:57.814Z,85.76
2022-08-29T05:26:31.336Z,85.91
2022-08-29T05:29:02.019Z,86.19
2022-08-29T05:31:31.665Z,86.64
2022-08-29T05:34:01.013Z,86.63
2022-08-29T05:36:45.855Z,86.48
2022-08-29T05:39:15.088Z,86.23
2022-08-29T05:41:44.316Z,86.36
2022-08-29T05:44:15.220Z,85.98
2022-08-29T05:46:44.519Z,86.44
2022-08-29T05:49:15.204Z,86.43
2022-08-29T05:51:44.841Z,86.91
2022-08-29T05:54:14.082Z,86.20
2022-08-29T05:56:43.311Z,86.08
2022-08-29T05:59:14.245Z,86.16
2022-08-29T06:01:43.742Z,85.69
2022-08-29T06:04:13.027Z,85.87
2022-08-29T06:06:43.424Z,85.92
2022-08-29T06:09:14.197Z,85.63
2022-08-29T06:11:46.910Z,85.42
2022-08-29T06:14:18.705Z,85.55
2022-08-29T06:16:48.198Z,86.22
2022-08-29T06:19:17.532Z,86.12
2022-08-29T06:21:47.444Z,85.45
2022-08-29T06:24:17.376Z,85.02
2022-08-29T06:26:47.021Z,85.24
2022-08-29T06:29:17.933Z,85.21
2022-08-29T06:31:47.164Z,85.29
2022-08-29T06:34:16.489Z,85.13
2022-08-29T06:36:46.013Z,84.92
2022-08-29T06:39:15.309Z,84.71
2022-08-29T06:41:44.706Z,84.40
2022-08-29T06:44:18.871Z,84.79
2022-08-29T06:46:50.800Z,83.75
2022-08-29T06:49:22.034Z,83.39
2022-08-29T06:51:57.417Z,83.10
2022-08-29T06:54:29.763Z,83.10
2022-08-29T06:56:59.913Z,82.39
2022-08-29T06:59:31.862Z,82.29
2022-08-29T07:02:01.198Z,82.20
2022-08-29T07:04:31.068Z,81.60
2022-08-29T07:07:00.319Z,81.14
2022-08-29T07:09:31.069Z,81.25
2022-08-29T07:12:00.557Z,81.56
2022-08-29T07:14:31.238Z,81.14
2022-08-29T07:17:00.777Z,80.53
2022-08-29T07:19:31.544Z,80.23
2022-08-29T07:22:01.150Z,80.19
2022-08-29T07:24:30.548Z,79.70
2022-08-29T07:27:00.018Z,79.64
2022-08-29T07:29:30.847Z,79.22
2022-08-29T07:32:02.167Z,78.65
2022-08-29T07:34:31.410Z,77.88
2022-08-29T07:37:00.674Z,77.22
2022-08-29T07:39:30.221Z,77.87
2022-08-29T07:41:59.791Z,77.92
2022-08-29T07:44:32.198Z,76.87
2022-08-29T07:47:04.517Z,77.41
2022-08-29T07:49:41.129Z,75.79
2022-08-29T07:52:11.394Z,76.14
2022-08-29T07:54:40.781Z,76.20
2022-08-29T07:57:10.043Z,75.55
2022-08-29T07:59:40.965Z,75.56
2022-08-29T08:02:10.311Z,75.73
2022-08-29T08:04:39.959Z,75.86
2022-08-29T08:07:13.799Z,74.31
2022-08-29T08:09:44.111Z,74.45
2022-08-29T08:12:13.666Z,74.15
2022-08-29T08:14:44.346Z,73.45
2022-08-29T08:17:13.592Z,73.77
2022-08-29T08:19:43.139Z,73.74
2022-08-29T08:22:12.459Z,73.25
2022-08-29T08:24:41.693Z,73.21
2022-08-29T08:27:11.201Z,72.54
2022-08-29T08:29:40.459Z,72.39
2022-08-29T08:32:11.141Z,71.40
2022-08-29T08:34:40.608Z,70.54
2022-08-29T08:37:11.310Z,69.43
2022-08-29T08:39:45.584Z,70.09
2022-08-29T08:42:25.624Z,68.35
2022-08-29T08:45:05.858Z,68.44
2022-08-29T08:47:41.501Z,67.55
2022-08-29T08:50:18.248Z,66.39
2022-08-29T08:52:53.940Z,67.01
2022-08-29T08:55:30.496Z,66.33
2022-08-29T08:58:08.068Z,66.07
2022-08-29T09:00:43.492Z,65.33
2022-08-29T09:03:30.309Z,65.99
2022-08-29T09:06:15.824Z,65.06
2022-08-29T09:08:53.083Z,65.47
2022-08-29T09:11:29.989Z,64.48
2022-08-29T09:14:08.464Z,64.99
2022-08-29T09:16:42.679Z,65.51
2022-08-29T09:19:17.225Z,65.13
2022-08-29T09:21:52.039Z,65.25
2022-08-29T09:24:26.226Z,64.82
2022-08-29T09:26:57.196Z,64.88
2022-08-29T09:29:28.902Z,64.04
2022-08-29T09:32:11.862Z,61.26
2022-08-29T09:35:07.524Z,62.02
2022-08-29T09:37:36.197Z,63.34
2022-08-29T09:40:10.768Z,63.29
2022-08-29T09:42:43.690Z,61.41
2022-08-29T09:45:20.722Z,62.51
2022-08-29T09:47:50.214Z,62.03
2022-08-29T09:50:25.507Z,61.37
2022-08-29T09:52:58.698Z,61.83
2022-08-29T09:55:32.896Z,62.71
2022-08-29T09:58:05.857Z,61.82
2022-08-29T10:00:38.245Z,62.39
2022-08-29T10:03:12.162Z,61.65
2022-08-29T10:05:45.713Z,61.73
2022-08-29T10:08:35.096Z,60.62
2022-08-29T10:11:06.878Z,60.23
2022-08-29T10:13:45.089Z,60.42
2022-08-29T10:16:20.485Z,59.10
2022-08-29T10:18:54.005Z,58.81
2022-08-29T10:21:39.158Z,59.79
2022-08-29T10:24:36.627Z,60.11
2022-08-29T10:27:17.003Z,59.26
2022-08-29T10:30:01.980Z,59.15
2022-08-29T10:32:48.155Z,59.26
2022-08-29T10:35:21.862Z,57.46
2022-08-29T10:37:57.614Z,58.16
2022-08-29T10:40:31.585Z,58.55
2022-08-29T10:43:30.296Z,59.00
2022-08-29T10:46:21.792Z,58.02
2022-08-29T10:49:01.072Z,57.54
2022-08-29T10:51:42.313Z,56.73
2022-08-29T10:54:22.627Z,55.89
2022-08-29T10:56:53.309Z,56.30
2022-08-29T10:59:42.647Z,56.56
2022-08-29T11:02:21.556Z,56.34
2022-08-29T11:04:55.257Z,55.53
2022-08-29T11:07:32.117Z,54.08
2022-08-29T11:10:10.882Z,51.26
2022-08-29T11:12:47.176Z,50.29
2022-08-29T11:15:22.256Z,52.33
2022-08-29T11:18:06.323Z,54.34
2022-08-29T11:20:40.941Z,53.87
2022-08-29T11:23:18.359Z,55.37
2022-08-29T11:25:49.268Z,56.06
2022-08-29T11:28:28.512Z,56.58
2022-08-29T11:31:05.986Z,55.81
2022-08-29T11:33:44.316Z,55.62
2022-08-29T11:36:44.688Z,56.17
2022-08-29T11:39:27.617Z,56.87
2022-08-29T11:42:02.530Z,57.87
2022-08-29T11:44:35.541Z,58.18
2022-08-29T11:47:33.907Z,58.66
2022-08-29T11:50:23.600Z,58.93
2022-08-29T11:52:57.634Z,60.30
2022-08-29T11:55:36.206Z,59.69
2022-08-29T11:58:29.180Z,60.49
2022-08-29T12:01:00.138Z,58.42
2022-08-29T12:03:50.274Z,56.70
2022-08-29T12:06:37.902Z,57.17
2022-08-29T12:09:31.538Z,56.24
2022-08-29T12:12:32.582Z,56.29
2022-08-29T12:15:03.312Z,55.76
2022-08-29T12:18:03.386Z,55.56
2022-08-29T12:20:43.279Z,54.28
2022-08-29T12:23:29.997Z,54.96
2022-08-29T12:26:21.507Z,55.85
2022-08-29T12:29:00.333Z,56.01
2022-08-29T12:32:08.581Z,55.20
2022-08-29T12:34:54.461Z,54.94
2022-08-29T12:37:38.503Z,54.05
2022-08-29T12:40:39.538Z,53.30
2022-08-29T12:43:32.271Z,53.50
2022-08-29T12:46:04.136Z,52.99
2022-08-29T12:48:41.330Z,53.27
2022-08-29T12:51:10.911Z,52.52
2022-08-29T12:53:40.214Z,52.06
2022-08-29T12:56:23.594Z,52.82
2022-08-29T12:58:59.530Z,53.99
2022-08-29T13:01:31.951Z,58.47
2022-08-29T13:04:05.559Z,60.94
2022-08-29T13:06:35.563Z,63.76
2022-08-29T13:09:06.183Z,65.53
2022-08-29T13:11:36.054Z,67.30
2022-08-29T13:14:07.999Z,69.82
2022-08-29T13:16:37.981Z,68.77
2022-08-29T13:19:20.754Z,72.12
2022-08-29T13:21:50.262Z,71.88
2022-08-29T13:24:21.846Z,72.28
2022-08-29T13:27:04.874Z,73.13
2022-08-29T13:29:39.564Z,72.96
2022-08-29T13:32:27.551Z,75.17
2022-08-29T13:35:18.783Z,75.26
2022-08-29T13:38:18.038Z,74.55
2022-08-29T13:40:49.387Z,75.74
2022-08-29T13:43:37.566Z,77.74
2022-08-29T13:46:18.116Z,78.46
2022-08-29T13:48:47.489Z,79.14
2022-08-29T13:51:18.711Z,78.17
2022-08-29T13:53:47.965Z,77.50
2022-08-29T13:56:25.438Z,77.04
2022-08-29T13:58:57.223Z,75.29
2022-08-29T14:02:07.403Z,73.51
2022-08-29T14:07:09.718Z,73.63
2022-08-29T14:09:41.721Z,75.66
2022-08-29T14:12:12.588Z,75.01
2022-08-29T14:14:41.996Z,73.11
2022-08-29T14:17:18.166Z,70.84
2022-08-29T14:19:48.363Z,71.73
2022-08-29T14:22:19.036Z,70.58
2022-08-29T14:24:52.865Z,69.97
2022-08-29T14:27:23.228Z,71.89
2022-08-29T14:29:53.168Z,71.91
2022-08-29T14:32:24.283Z,71.75
2022-08-29T14:34:56.605Z,71.47
2022-08-29T14:37:27.930Z,71.45
2022-08-29T14:39:58.175Z,72.35
2022-08-29T14:42:27.752Z,71.63
2022-08-29T14:44:56.994Z,72.44
2022-08-29T14:47:26.491Z,72.63
2022-08-29T14:49:55.850Z,73.07
2022-08-29T14:52:26.524Z,73.43
2022-08-29T14:54:58.891Z,73.64
2022-08-29T14:57:28.238Z,74.86
2022-08-29T14:59:57.543Z,75.45
2022-08-29T15:02:27.145Z,74.91
2022-08-29T15:04:58.508Z,75.37
2022-08-29T15:07:29.410Z,75.58
2022-08-29T15:09:58.719Z,75.84
2022-08-29T15:12:29.098Z,75.57
2022-08-29T15:14:58.842Z,75.85
2022-08-29T15:17:28.745Z,76.46
2022-08-29T15:22:49.013Z,75.17
2022-08-29T15:25:18.415Z,74.98
2022-08-29T15:27:47.842Z,73.77
2022-08-29T15:30:20.953Z,74.02
2022-08-29T15:32:50.693Z,73.17
2022-08-29T15:35:20.058Z,72.68
2022-08-29T15:37:50.824Z,71.66
2022-08-29T15:40:20.808Z,71.95
2022-08-29T15:42:50.228Z,71.75
2022-08-29T15:45:22.731Z,70.81
2022-08-29T15:47:54.199Z,70.70
2022-08-29T15:50:24.684Z,71.14
2022-08-29T15:52:55.632Z,71.39
2022-08-29T15:55:25.438Z,71.75
2022-08-29T15:57:54.951Z,71.83
2022-08-29T16:00:30.071Z,71.77
2022-08-29T16:03:02.722Z,71.38
2022-08-29T16:05:33.471Z,71.42
2022-08-29T16:08:04.829Z,71.39
2022-08-29T16:10:34.729Z,70.78
2022-08-29T16:13:04.482Z,70.74
2022-08-29T16:15:35.188Z,70.97
2022-08-29T16:18:05.813Z,70.41
2022-08-29T16:20:41.376Z,70.28
2022-08-29T16:23:12.639Z,69.90
2022-08-29T16:25:43.080Z,70.05
2022-08-29T16:28:14.031Z,69.74
2022-08-29T16:30:46.168Z,69.44
2022-08-29T16:33:16.387Z,69.88
2022-08-29T16:35:46.419Z,70.33
2022-08-29T16:38:17.101Z,71.08
2022-08-29T16:40:46.963Z,71.26
2022-08-29T16:43:16.252Z,70.97
2022-08-29T16:45:45.681Z,71.14
2022-08-29T16:48:17.777Z,71.97
2022-08-29T16:50:47.729Z,72.10
2022-08-29T16:53:19.363Z,72.39
2022-08-29T16:55:48.754Z,72.44
2022-08-29T16:58:36.077Z,72.76
2022-08-29T17:01:05.766Z,72.79
2022-08-29T17:03:35.733Z,72.46
2022-08-29T17:06:05.825Z,72.52
2022-08-29T17:08:35.347Z,72.57
2022-08-29T17:11:03.704Z,72.87
2022-08-29T17:13:32.322Z,73.00
2022-08-29T17:16:03.015Z,74.35
2022-08-29T17:18:33.107Z,74.87
2022-08-29T17:21:02.450Z,77.17
2022-08-29T17:23:34.635Z,75.58
2022-08-29T17:26:08.619Z,76.93
2022-08-29T17:28:39.598Z,77.12
2022-08-29T17:31:09.748Z,77.03
2022-08-29T17:33:38.877Z,77.50
2022-08-29T17:36:09.704Z,77.63
2022-08-29T17:38:41.915Z,77.85
2022-08-29T17:41:17.568Z,77.25
2022-08-29T17:43:48.474Z,78.57
2022-08-29T17:46:19.634Z,79.14
2022-08-29T17:48:49.541Z,79.52
2022-08-29T17:51:18.768Z,80.06
2022-08-29T17:53:49.564Z,80.35
2022-08-29T17:56:21.928Z,80.71
2022-08-29T17:58:51.152Z,80.72
2022-08-29T18:01:20.732Z,80.27
2022-08-29T18:03:51.229Z,80.01
2022-08-29T18:06:21.701Z,80.04
2022-08-29T18:08:50.912Z,80.26
2022-08-29T18:11:21.698Z,79.83
2022-08-29T18:13:51.588Z,80.00
2022-08-29T18:16:20.908Z,80.64
2022-08-29T18:18:51.611Z,80.47
2022-08-29T18:21:21.364Z,80.46
2022-08-29T18:23:50.985Z,80.76
2022-08-29T18:26:21.660Z,80.42
2022-08-29T18:28:51.166Z,79.61
2022-08-29T18:31:21.314Z,80.39
2022-08-29T18:34:06.168Z,80.70
2022-08-29T18:36:38.162Z,81.06
2022-08-29T18:39:08.477Z,81.24
2022-08-29T18:41:40.008Z,82.66
2022-08-29T18:44:09.770Z,83.06
2022-08-29T18:46:41.029Z,83.29
2022-08-29T18:49:11.727Z,83.16
2022-08-29T18:51:41.642Z,83.84
2022-08-29T18:54:10.983Z,83.98
2022-08-29T18:56:42.417Z,83.37
2022-08-29T18:59:12.493Z,83.07
2022-08-29T19:01:44.637Z,83.12
2022-08-29T19:04:14.361Z,82.89
2022-08-29T19:06:43.913Z,82.49
2022-08-29T19:09:13.176Z,82.69
2022-08-29T19:11:44.081Z,82.29
2022-08-29T19:14:14.133Z,82.13
2022-08-29T19:16:43.817Z,82.55
2022-08-29T19:19:13.713Z,82.01
2022-08-29T19:21:42.982Z,82.47
2022-08-29T19:24:12.479Z,82.64
2022-08-29T19:26:43.564Z,83.11
2022-08-29T19:29:15.669Z,83.06
2022-08-29T19:31:46.361Z,83.58
2022-08-29T19:34:15.633Z,83.59
2022-08-29T19:36:46.908Z,82.99
2022-08-29T19:39:17.018Z,82.43
2022-08-29T19:41:47.779Z,82.79
2022-08-29T19:44:17.303Z,82.60
2022-08-29T19:46:49.346Z,82.85
2022-08-29T19:49:19.393Z,82.44
2022-08-29T19:51:48.691Z,82.39
2022-08-29T19:54:19.604Z,82.13
2022-08-29T19:56:50.501Z,82.10
2022-08-29T19:59:19.930Z,82.56
2022-08-29T20:01:50.122Z,82.95
2022-08-29T20:04:19.565Z,83.08
2022-08-29T20:06:49.109Z,83.51
2022-08-29T20:11:58.192Z,84.36
2022-08-29T20:14:28.432Z,84.28
2022-08-29T20:16:58.036Z,84.15
2022-08-29T20:19:27.764Z,84.00
2022-08-29T20:22:01.956Z,83.89
2022-08-29T20:24:34.232Z,84.04
2022-08-29T20:27:07.556Z,84.69
2022-08-29T20:29:36.956Z,84.31
2022-08-29T20:32:08.827Z,84.35
2022-08-29T20:34:38.490Z,84.06
2022-08-29T20:37:10.113Z,84.53
2022-08-29T20:39:43.245Z,84.11
2022-08-29T20:42:15.150Z,84.18
2022-08-29T20:44:45.627Z,84.44
2022-08-29T20:47:17.995Z,84.61
2022-08-29T20:49:49.446Z,84.85
2022-08-29T20:52:20.914Z,85.14
2022-08-29T20:54:51.519Z,86.37
2022-08-29T20:57:22.668Z,86.36
2022-08-29T20:59:52.604Z,86.02
2022-08-29T21:02:22.321Z,86.16
2022-08-29T21:05:09.009Z,85.61
2022-08-29T21:07:38.539Z,85.62
2022-08-29T21:10:09.165Z,85.78
2022-08-29T21:12:39.914Z,85.22
2022-08-29T21:15:10.174Z,85.28
2022-08-29T21:17:39.336Z,85.31
2022-08-29T21:20:10.105Z,84.82
2022-08-29T21:22:39.656Z,85.11
2022-08-29T21:25:09.490Z,85.36
2022-08-29T21:27:40.238Z,85.31
2022-08-29T21:30:10.851Z,84.94
2022-08-29T21:32:40.174Z,84.64
2022-08-29T21:35:10.028Z,84.91
2022-08-29T21:37:39.270Z,84.78
2022-08-29T21:40:10.864Z,84.56
2022-08-29T21:42:42.270Z,84.73
2022-08-29T21:45:13.786Z,84.43
2022-08-29T21:47:43.341Z,84.21
2022-08-29T21:50:15.179Z,84.14
2022-08-29T21:52:44.718Z,83.80
2022-08-29T21:55:14.260Z,83.66
2022-08-29T21:57:55.123Z,83.57
2022-08-29T22:00:26.820Z,83.26
2022-08-29T22:02:56.381Z,83.11
2022-08-29T22:05:26.012Z,83.07
2022-08-29T22:07:55.291Z,83.22
2022-08-29T22:10:27.135Z,82.93
2022-08-29T22:12:58.631Z,83.00
2022-08-29T22:15:45.295Z,83.33
2022-08-29T22:18:15.275Z,83.28
2022-08-29T22:20:46.623Z,83.44
2022-08-29T22:23:19.846Z,83.80
2022-08-29T22:25:49.547Z,83.65
2022-08-29T22:28:20.734Z,83.64
2022-08-29T22:30:50.406Z,83.13
2022-08-29T22:33:20.258Z,83.20
2022-08-29T22:35:52.190Z,83.17
2022-08-29T22:38:21.456Z,83.34
2022-08-29T22:40:50.823Z,83.55
2022-08-29T22:43:21.516Z,83.74
2022-08-29T22:46:12.862Z,84.10
2022-08-29T22:48:43.259Z,84.14
2022-08-29T22:51:16.217Z,84.01
2022-08-29T22:54:07.280Z,84.30
2022-08-29T22:56:40.554Z,83.93
2022-08-29T22:59:11.309Z,83.55
2022-08-29T23:01:45.188Z,83.83
2022-08-29T23:04:15.204Z,83.86
2022-08-29T23:06:44.925Z,84.02
2022-08-29T23:09:14.261Z,84.01
2022-08-29T23:11:43.874Z,85.01
2022-08-29T23:14:14.899Z,85.25
2022-08-29T23:16:44.616Z,86.65
2022-08-29T23:19:16.050Z,86.12
2022-08-29T23:21:46.022Z,86.14
2022-08-29T23:24:15.401Z,85.76
2022-08-29T23:26:44.994Z,86.23
2022-08-29T23:29:15.799Z,86.18
2022-08-29T23:31:45.419Z,86.76
2022-08-29T23:34:15.435Z,87.46
2022-08-29T23:36:44.854Z,88.56
2022-08-29T23:39:14.739Z,88.79
2022-08-29T23:41:44.060Z,88.62
2022-08-29T23:44:15.598Z,88.32
2022-08-29T23:46:45.692Z,87.84
2022-08-29T23:49:15.046Z,87.67
2022-08-29T23:51:44.444Z,88.18
2022-08-29T23:54:14.067Z,87.70
2022-08-29T23:56:44.184Z,88.25
2022-08-29T23:59:34.759Z,88.08
